createdAt,value
2022-11-29T00:02:00.421Z,8.75
2022-11-29T00:06:08.333Z,8.75
2022-11-29T00:10:10.232Z,8.77
2022-11-29T00:14:14.487Z,8.80
2022-11-29T00:18:16.169Z,8.80
2022-11-29T00:22:17.716Z,8.82
2022-11-29T00:26:19.397Z,8.84
2022-11-29T00:30:21.252Z,8.86
2022-11-29T00:34:22.897Z,8.86
2022-11-29T00:38:24.441Z,8.85
2022-11-29T00:42:26.127Z,8.84
2022-11-29T00:46:27.732Z,8.83
2022-11-29T00:50:29.444Z,8.83
2022-11-29T00:54:31.038Z,8.83
2022-11-29T00:58:33.446Z,8.83
2022-11-29T01:02:35.063Z,8.82
2022-11-29T01:06:36.718Z,8.82
2022-11-29T01:10:38.426Z,8.82
2022-11-29T01:14:39.991Z,8.85
2022-11-29T01:18:42.047Z,8.84
2022-11-29T01:22:43.608Z,8.86
2022-11-29T01:26:45.180Z,8.88
2022-11-29T01:30:46.812Z,8.92
2022-11-29T01:34:48.435Z,8.92
2022-11-29T01:38:50.149Z,8.94
2022-11-29T01:42:51.739Z,8.95
2022-11-29T01:46:54.943Z,8.98
2022-11-29T01:51:00.847Z,8.99
2022-11-29T01:55:05.644Z,8.99
2022-11-29T01:59:14.575Z,8.99
2022-11-29T02:03:18.287Z,8.99
2022-11-29T02:07:19.900Z,8.92
2022-11-29T02:11:33.606Z,8.85
2022-11-29T02:15:46.336Z,8.79
2022-11-29T02:20:06.884Z,8.76
2022-11-29T02:24:35.023Z,8.74
2022-11-29T02:28:55.335Z,8.76
2022-11-29T02:33:34.391Z,8.78
2022-11-29T02:37:54.285Z,8.79
2022-11-29T02:41:58.666Z,8.79
2022-11-29T02:46:21.758Z,8.79
2022-11-29T02:50:52.366Z,8.77
2022-11-29T02:55:15.574Z,8.74
2022-11-29T02:59:40.164Z,8.76
2022-11-29T03:04:06.844Z,8.80
2022-11-29T03:08:29.021Z,8.74
2022-11-29T03:12:43.770Z,8.72
2022-11-29T03:17:09.301Z,8.69
2022-11-29T03:21:22.947Z,8.69
2022-11-29T03:25:31.883Z,8.67
2022-11-29T03:29:39.218Z,8.57
2022-11-29T03:33:58.215Z,8.51
2022-11-29T03:38:11.125Z,8.52
2022-11-29T03:42:37.177Z,8.54
2022-11-29T03:47:00.188Z,8.60
2022-11-29T03:51:14.932Z,8.60
2022-11-29T03:55:22.255Z,8.63
2022-11-29T03:59:47.801Z,8.61
2022-11-29T04:04:26.310Z,8.63
2022-11-29T04:08:39.880Z,8.66
2022-11-29T04:13:09.369Z,8.67
2022-11-29T04:17:31.226Z,8.63
2022-11-29T04:21:48.119Z,8.62
2022-11-29T04:26:09.379Z,8.61
2022-11-29T04:30:22.854Z,8.62
2022-11-29T04:34:58.895Z,8.63
2022-11-29T04:39:32.275Z,8.63
2022-11-29T04:43:33.799Z,8.63
2022-11-29T04:47:50.240Z,8.63
2022-11-29T04:52:19.835Z,8.59
2022-11-29T04:56:45.451Z,8.54
2022-11-29T05:01:18.575Z,8.52
2022-11-29T05:05:30.469Z,8.53
2022-11-29T05:09:47.211Z,8.55
2022-11-29T05:14:03.939Z,8.51
2022-11-29T05:18:13.608Z,8.52
2022-11-29T05:22:48.226Z,8.56
2022-11-29T05:26:54.481Z,8.56
2022-11-29T05:31:19.125Z,8.55
2022-11-29T05:35:36.092Z,8.53
2022-11-29T05:39:37.685Z,8.54
2022-11-29T05:44:00.969Z,8.55
2022-11-29T05:48:07.231Z,8.55
2022-11-29T05:52:44.019Z,8.50
2022-11-29T05:57:08.267Z,8.51
2022-11-29T06:01:24.104Z,8.52
2022-11-29T06:05:35.523Z,8.53
2022-11-29T06:10:11.170Z,8.53
2022-11-29T06:14:28.179Z,8.52
2022-11-29T06:19:00.449Z,8.55
2022-11-29T06:23:24.252Z,8.59
2022-11-29T06:27:25.821Z,8.62
2022-11-29T06:31:39.998Z,8.63
2022-11-29T06:35:52.129Z,8.63
2022-11-29T06:39:54.930Z,8.62
2022-11-29T06:43:56.953Z,8.61
2022-11-29T06:48:03.280Z,8.61
2022-11-29T06:52:28.515Z,8.61
2022-11-29T06:56:48.904Z,8.62
2022-11-29T07:01:06.322Z,8.64
2022-11-29T07:05:18.602Z,8.65
2022-11-29T07:09:25.423Z,8.69
2022-11-29T07:13:27.306Z,8.70
2022-11-29T07:17:30.022Z,8.70
2022-11-29T07:21:50.228Z,8.71
2022-11-29T07:25:57.712Z,8.71
2022-11-29T07:30:05.390Z,8.73
2022-11-29T07:34:22.216Z,8.75
2022-11-29T07:38:56.299Z,8.79
2022-11-29T07:43:22.250Z,8.84
2022-11-29T07:47:23.905Z,8.92
2022-11-29T07:51:25.865Z,8.92
2022-11-29T07:55:27.908Z,8.96
2022-11-29T07:59:29.623Z,8.95
2022-11-29T08:03:31.310Z,9.00
2022-11-29T08:07:36.873Z,8.98
2022-11-29T08:11:39.629Z,8.96
2022-11-29T08:15:45.528Z,8.85
2022-11-29T08:19:47.082Z,8.94
2022-11-29T08:23:49.632Z,9.06
2022-11-29T08:27:51.836Z,9.15
2022-11-29T08:31:54.100Z,9.20
2022-11-29T08:35:56.559Z,9.23
2022-11-29T08:39:59.029Z,9.25
2022-11-29T08:44:00.613Z,9.22
2022-11-29T08:48:02.238Z,9.17
2022-11-29T08:52:22.752Z,9.10
2022-11-29T08:57:16.451Z,9.08
2022-11-29T09:00:47.488Z,9.12
2022-11-29T09:04:49.119Z,9.11
2022-11-29T09:08:50.736Z,9.13
2022-11-29T09:12:52.356Z,9.16
2022-11-29T09:16:53.909Z,9.19
2022-11-29T09:20:55.501Z,9.31
2022-11-29T09:24:57.440Z,9.39
2022-11-29T09:29:03.920Z,9.46
2022-11-29T09:33:05.480Z,9.49
2022-11-29T09:37:07.099Z,9.44
2022-11-29T09:41:30.543Z,9.48
2022-11-29T09:45:38.548Z,9.43
2022-11-29T09:49:43.164Z,9.51
2022-11-29T09:54:16.135Z,9.57
2022-11-29T09:58:21.736Z,9.64
2022-11-29T10:02:53.032Z,9.71
2022-11-29T10:06:54.587Z,9.73
2022-11-29T10:11:13.402Z,9.75
2022-11-29T10:15:27.907Z,9.78
2022-11-29T10:19:43.156Z,9.84
2022-11-29T10:23:53.074Z,9.80
2022-11-29T10:27:54.691Z,9.79
2022-11-29T10:31:59.330Z,9.83
2022-11-29T10:36:05.132Z,9.92
2022-11-29T10:40:15.084Z,9.96
2022-11-29T10:44:16.692Z,10.01
2022-11-29T10:48:21.673Z,10.03
2022-11-29T10:52:24.032Z,10.04
2022-11-29T10:56:31.235Z,10.10
2022-11-29T11:00:43.917Z,10.13
2022-11-29T11:04:47.715Z,10.15
2022-11-29T11:08:57.827Z,10.16
2022-11-29T11:13:04.924Z,10.15
2022-11-29T11:17:27.020Z,10.20
2022-11-29T11:21:28.648Z,10.16
2022-11-29T11:25:35.184Z,10.16
2022-11-29T11:29:41.345Z,10.12
2022-11-29T11:33:44.788Z,10.12
2022-11-29T11:37:56.143Z,10.10
2022-11-29T11:42:16.369Z,10.06
2022-11-29T11:46:18.392Z,10.08
2022-11-29T11:50:37.495Z,10.12
2022-11-29T11:54:39.143Z,10.18
2022-11-29T11:58:43.939Z,10.24
2022-11-29T12:02:45.682Z,10.29
2022-11-29T12:06:52.319Z,10.30
2022-11-29T12:11:02.807Z,10.33
2022-11-29T12:15:16.507Z,10.42
2022-11-29T12:19:23.580Z,10.51
2022-11-29T12:24:00.108Z,10.54
2022-11-29T12:28:01.815Z,10.56
2022-11-29T12:32:25.294Z,10.54
2022-11-29T12:36:35.821Z,10.44
2022-11-29T12:40:43.596Z,10.44
2022-11-29T12:45:23.706Z,10.47
2022-11-29T12:49:34.420Z,10.47
2022-11-29T12:54:04.221Z,10.47
2022-11-29T12:58:16.616Z,10.52
2022-11-29T13:02:42.541Z,10.56
2022-11-29T13:07:02.808Z,10.59
2022-11-29T13:11:24.303Z,10.61
2022-11-29T13:16:01.517Z,10.49
2022-11-29T13:20:18.133Z,10.49
2022-11-29T13:24:28.775Z,10.55
2022-11-29T13:28:34.162Z,10.59
2022-11-29T13:32:57.125Z,10.62
2022-11-29T13:37:15.403Z,10.61
2022-11-29T13:41:26.765Z,10.61
2022-11-29T13:45:37.652Z,10.58
2022-11-29T13:50:02.242Z,10.56
2022-11-29T13:54:07.208Z,10.43
2022-11-29T13:58:17.868Z,10.42
2022-11-29T14:02:30.753Z,10.43
2022-11-29T14:06:38.063Z,10.43
2022-11-29T14:10:39.849Z,10.43
2022-11-29T14:14:51.576Z,10.42
2022-11-29T14:19:05.318Z,10.41
2022-11-29T14:23:07.627Z,10.39
2022-11-29T14:27:10.084Z,10.39
2022-11-29T14:31:31.755Z,10.42
2022-11-29T14:35:43.544Z,10.40
2022-11-29T14:39:52.957Z,10.39
2022-11-29T14:44:18.711Z,10.39
2022-11-29T14:48:28.114Z,10.41
2022-11-29T14:53:02.520Z,10.41
2022-11-29T14:57:58.240Z,10.34
2022-11-29T15:02:12.336Z,10.23
2022-11-29T15:06:23.301Z,10.25
2022-11-29T15:10:29.855Z,10.25
2022-11-29T15:14:42.752Z,10.23
2022-11-29T15:18:47.321Z,10.20
2022-11-29T15:22:54.409Z,10.15
2022-11-29T15:26:57.375Z,10.09
2022-11-29T15:31:10.147Z,10.01
2022-11-29T15:35:18.681Z,9.95
2022-11-29T15:39:46.063Z,9.93
2022-11-29T15:43:52.558Z,9.92
2022-11-29T15:47:54.809Z,9.92
2022-11-29T15:52:05.818Z,9.92
2022-11-29T15:56:33.057Z,9.91
2022-11-29T16:00:35.372Z,9.86
2022-11-29T16:04:43.570Z,9.84
2022-11-29T16:08:50.081Z,9.83
2022-11-29T16:13:07.056Z,9.83
2022-11-29T16:17:27.767Z,9.80
2022-11-29T16:21:41.885Z,9.82
2022-11-29T16:26:00.888Z,9.80
2022-11-29T16:30:20.024Z,9.73
2022-11-29T16:34:27.217Z,9.65
2022-11-29T16:38:29.085Z,9.59
2022-11-29T16:42:33.764Z,9.50
2022-11-29T16:46:40.420Z,9.44
2022-11-29T16:50:43.047Z,9.35
2022-11-29T16:54:44.899Z,9.28
2022-11-29T16:59:20.978Z,9.22
2022-11-29T17:03:15.464Z,9.17
2022-11-29T17:07:27.028Z,9.14
2022-11-29T17:11:28.757Z,9.09
2022-11-29T17:15:30.599Z,9.07
2022-11-29T17:19:32.416Z,9.05
2022-11-29T17:23:34.814Z,9.00
2022-11-29T17:27:36.660Z,8.98
2022-11-29T17:31:38.884Z,8.99
2022-11-29T17:35:40.451Z,9.01
2022-11-29T17:39:44.791Z,9.05
2022-11-29T17:43:46.629Z,9.10
2022-11-29T17:47:51.632Z,9.14
2022-11-29T17:51:53.745Z,9.20
2022-11-29T17:55:55.667Z,9.25
2022-11-29T17:59:57.495Z,9.29
2022-11-29T18:04:01.772Z,9.31
2022-11-29T18:08:05.864Z,9.35
2022-11-29T18:12:08.008Z,9.35
2022-11-29T18:16:12.648Z,9.35
2022-11-29T18:20:15.070Z,9.34
2022-11-29T18:24:17.300Z,9.37
2022-11-29T18:28:18.877Z,9.35
2022-11-29T18:32:20.464Z,9.32
2022-11-29T18:36:31.123Z,9.29
2022-11-29T18:40:33.033Z,9.26
2022-11-29T18:44:34.870Z,9.25
2022-11-29T18:48:36.971Z,9.26
2022-11-29T18:52:40.793Z,9.24
2022-11-29T18:56:43.633Z,9.19
2022-11-29T19:00:45.331Z,9.14
2022-11-29T19:04:48.385Z,9.11
2022-11-29T19:08:52.060Z,9.08
2022-11-29T19:12:53.675Z,9.04
2022-11-29T19:16:55.334Z,8.99
2022-11-29T19:21:11.052Z,8.94
2022-11-29T19:25:12.683Z,8.86
2022-11-29T19:29:15.301Z,8.80
2022-11-29T19:33:16.993Z,8.72
2022-11-29T19:37:18.710Z,8.61
2022-11-29T19:41:26.171Z,8.54
2022-11-29T19:45:27.792Z,8.53
2022-11-29T19:49:29.425Z,8.53
2022-11-29T19:53:32.677Z,8.54
2022-11-29T19:57:34.268Z,8.55
2022-11-29T20:01:41.776Z,8.58
2022-11-29T20:05:53.664Z,8.62
2022-11-29T20:09:55.476Z,8.64
2022-11-29T20:14:01.802Z,8.69
2022-11-29T20:18:04.694Z,8.72
2022-11-29T20:22:06.324Z,8.76
2022-11-29T20:26:14.342Z,8.79
2022-11-29T20:30:16.152Z,8.81
2022-11-29T20:34:19.196Z,8.84
2022-11-29T20:38:51.991Z,8.87
2022-11-29T20:43:10.862Z,8.88
2022-11-29T20:47:21.628Z,8.89
2022-11-29T20:51:28.831Z,8.89
2022-11-29T20:55:30.621Z,8.93
2022-11-29T20:59:32.283Z,8.94
2022-11-29T21:03:34.334Z,8.95
2022-11-29T21:07:36.101Z,8.97
2022-11-29T21:11:37.993Z,8.96
2022-11-29T21:15:41.377Z,8.97
2022-11-29T21:19:43.931Z,8.97
2022-11-29T21:23:56.919Z,8.95
2022-11-29T21:28:00.470Z,8.90
2022-11-29T21:32:03.086Z,8.83
2022-11-29T21:36:06.197Z,8.74
2022-11-29T21:40:09.564Z,8.66
2022-11-29T21:44:11.265Z,8.62
2022-11-29T21:48:31.397Z,8.58
2022-11-29T21:52:32.955Z,8.56
2022-11-29T21:56:34.599Z,8.55
2022-11-29T22:00:37.682Z,8.54
2022-11-29T22:04:39.498Z,8.54
2022-11-29T22:08:42.061Z,8.55
2022-11-29T22:12:51.873Z,8.54
2022-11-29T22:16:56.976Z,8.56
2022-11-29T22:21:05.557Z,8.59
2022-11-29T22:25:07.554Z,8.60
2022-11-29T22:29:11.437Z,8.62
2022-11-29T22:33:13.611Z,8.61
2022-11-29T22:37:15.336Z,8.63
2022-11-29T22:41:18.574Z,8.66
2022-11-29T22:45:20.149Z,8.66
2022-11-29T22:49:21.822Z,8.70
2022-11-29T22:53:23.378Z,8.73
2022-11-29T22:57:24.951Z,8.76
2022-11-29T23:01:29.370Z,8.77
2022-11-29T23:05:32.993Z,8.78
2022-11-29T23:09:34.565Z,8.78
2022-11-29T23:13:38.965Z,8.80
2022-11-29T23:17:40.717Z,8.79
2022-11-29T23:21:44.712Z,8.76
2022-11-29T23:25:49.989Z,8.77
2022-11-29T23:29:51.732Z,8.77
2022-11-29T23:33:53.435Z,8.77
2022-11-29T23:37:55.116Z,8.79
2022-11-29T23:41:56.811Z,8.82
2022-11-29T23:45:58.907Z,8.84
2022-11-29T23:50:00.562Z,8.86
2022-11-29T23:54:02.172Z,8.89
2022-11-29T23:58:03.878Z,8.88
